createdAt,value
2023-02-23T00:01:26.104Z,21.60
2023-02-23T00:06:29.773Z,20.40
2023-02-23T00:11:33.624Z,24.20
2023-02-23T00:16:35.367Z,21.30
2023-02-23T00:21:37.202Z,23.00
2023-02-23T00:26:39.970Z,15.20
2023-02-23T00:31:44.346Z,19.40
2023-02-23T00:36:49.448Z,16.60
2023-02-23T00:46:54.623Z,15.30
2023-02-23T00:51:56.799Z,15.20
2023-02-23T00:56:58.538Z,20.10
2023-02-23T01:02:00.201Z,20.40
2023-02-23T01:07:06.434Z,22.50
2023-02-23T01:12:08.162Z,15.30
2023-02-23T01:17:10.385Z,23.10
2023-02-23T01:22:12.091Z,14.30
2023-02-23T01:27:15.442Z,18.10
2023-02-23T01:32:17.211Z,15.70
2023-02-23T01:37:19.070Z,16.90
2023-02-23T01:42:22.824Z,10.10
2023-02-23T01:47:26.764Z,16.70
2023-02-23T01:52:28.518Z,14.10
2023-02-23T01:57:30.391Z,9.00
2023-02-23T02:02:33.953Z,10.50
2023-02-23T02:07:36.883Z,12.40
2023-02-23T02:12:40.042Z,12.00
2023-02-23T02:18:03.599Z,8.90
2023-02-23T02:23:37.733Z,13.70
2023-02-23T02:29:01.121Z,9.40
2023-02-23T02:34:32.636Z,7.80
2023-02-23T02:40:16.440Z,7.60
2023-02-23T02:45:37.417Z,13.80
2023-02-23T02:50:46.579Z,12.80
2023-02-23T02:55:50.374Z,8.70
2023-02-23T03:01:12.190Z,10.60
2023-02-23T03:06:33.588Z,14.90
2023-02-23T03:12:10.800Z,8.80
2023-02-23T03:18:02.104Z,10.60
2023-02-23T03:23:55.344Z,10.90
2023-02-23T03:29:49.384Z,9.90
2023-02-23T03:35:25.691Z,13.20
2023-02-23T03:40:56.160Z,13.10
2023-02-23T03:46:20.325Z,15.20
2023-02-23T03:51:44.771Z,10.90
2023-02-23T03:57:09.747Z,7.50
2023-02-23T04:02:33.802Z,9.00
2023-02-23T04:07:59.018Z,12.90
2023-02-23T04:13:16.337Z,15.40
2023-02-23T04:18:24.414Z,9.50
2023-02-23T04:23:27.342Z,9.50
2023-02-23T04:28:29.291Z,10.40
2023-02-23T04:33:31.123Z,14.10
2023-02-23T04:38:32.807Z,12.30
2023-02-23T04:43:34.515Z,12.40
2023-02-23T04:48:36.176Z,10.40
2023-02-23T04:53:38.509Z,19.70
2023-02-23T04:58:40.201Z,19.10
2023-02-23T05:03:41.840Z,16.30
2023-02-23T05:08:44.240Z,15.10
2023-02-23T05:13:45.948Z,12.00
2023-02-23T05:18:47.682Z,17.20
2023-02-23T05:23:49.716Z,20.40
2023-02-23T05:28:51.499Z,12.80
2023-02-23T05:33:53.209Z,14.80
2023-02-23T05:38:55.171Z,22.30
2023-02-23T05:43:56.888Z,22.70
2023-02-23T05:49:00.997Z,16.20
2023-02-23T05:54:02.762Z,17.90
2023-02-23T05:59:04.904Z,20.40
2023-02-23T06:04:06.768Z,15.70
2023-02-23T06:09:08.506Z,18.80
2023-02-23T06:14:10.163Z,17.60
2023-02-23T06:19:11.905Z,17.80
2023-02-23T06:24:13.647Z,18.30
2023-02-23T06:29:15.642Z,63.80
2023-02-23T06:34:17.465Z,28.40
2023-02-23T06:39:19.143Z,18.10
2023-02-23T06:44:21.158Z,16.80
2023-02-23T06:49:22.999Z,16.10
2023-02-23T06:54:26.391Z,22.90
2023-02-23T06:59:28.145Z,14.10
2023-02-23T07:04:29.955Z,33.70
2023-02-23T07:09:31.854Z,35.90
2023-02-23T07:14:33.678Z,18.80
2023-02-23T07:19:35.491Z,21.30
2023-02-23T07:24:38.504Z,14.70
2023-02-23T07:29:40.245Z,22.10
2023-02-23T07:34:41.925Z,21.60
2023-02-23T07:39:44.115Z,13.20
2023-02-23T07:44:45.900Z,19.00
2023-02-23T07:49:47.584Z,21.50
2023-02-23T07:54:49.287Z,20.60
2023-02-23T07:59:58.704Z,21.00
2023-02-23T08:05:00.390Z,24.80
2023-02-23T08:10:02.179Z,18.80
2023-02-23T08:15:08.192Z,16.60
2023-02-23T08:20:10.679Z,18.60
2023-02-23T08:25:12.365Z,16.30
2023-02-23T08:30:15.543Z,22.60
2023-02-23T08:35:20.076Z,22.50
2023-02-23T08:40:21.796Z,18.80
2023-02-23T08:45:23.458Z,22.60
2023-02-23T08:50:27.332Z,19.90
2023-02-23T08:55:29.180Z,20.90
2023-02-23T09:00:31.370Z,20.70
2023-02-23T09:05:36.716Z,22.70
2023-02-23T09:10:38.637Z,21.10
2023-02-23T09:15:40.996Z,21.20
2023-02-23T09:20:44.165Z,17.80
2023-02-23T09:25:46.470Z,22.20
2023-02-23T09:30:48.592Z,23.60
2023-02-23T09:35:50.267Z,20.20
2023-02-23T09:40:55.392Z,32.80
2023-02-23T09:46:31.355Z,27.80
2023-02-23T09:51:40.753Z,16.50
2023-02-23T09:56:46.971Z,27.50
2023-02-23T10:01:48.752Z,22.60
2023-02-23T10:07:25.076Z,25.30
2023-02-23T10:12:42.284Z,24.50
2023-02-23T10:18:45.672Z,22.00
2023-02-23T10:23:59.447Z,25.00
2023-02-23T10:29:01.108Z,26.20
2023-02-23T10:34:09.958Z,25.40
2023-02-23T10:39:13.542Z,25.10
2023-02-23T10:44:21.493Z,21.10
2023-02-23T10:49:30.329Z,24.20
2023-02-23T10:54:48.417Z,22.00
2023-02-23T11:00:07.093Z,20.00
2023-02-23T11:05:29.256Z,25.90
2023-02-23T11:10:32.185Z,23.10
2023-02-23T11:15:49.807Z,24.60
2023-02-23T11:20:52.627Z,24.30
2023-02-23T11:26:00.264Z,19.70
2023-02-23T11:31:15.854Z,21.20
2023-02-23T11:36:37.220Z,22.10
2023-02-23T11:41:38.892Z,16.90
2023-02-23T11:46:45.705Z,37.00
2023-02-23T11:51:49.876Z,17.50
2023-02-23T11:56:54.065Z,18.50
2023-02-23T12:02:05.186Z,12.00
2023-02-23T12:07:38.731Z,15.00
2023-02-23T12:13:22.995Z,12.60
2023-02-23T12:18:27.618Z,12.40
2023-02-23T12:23:34.969Z,13.40
2023-02-23T12:28:47.986Z,15.50
2023-02-23T12:34:01.261Z,15.40
2023-02-23T12:39:11.878Z,13.60
2023-02-23T12:44:29.770Z,12.00
2023-02-23T12:49:46.058Z,15.00
2023-02-23T12:54:48.103Z,13.80
2023-02-23T13:00:24.003Z,12.60
2023-02-23T13:05:32.238Z,10.60
2023-02-23T13:10:59.626Z,12.60
2023-02-23T13:16:05.657Z,10.60
2023-02-23T13:21:16.467Z,11.60
2023-02-23T13:26:27.017Z,12.20
2023-02-23T13:31:35.402Z,11.40
2023-02-23T13:36:40.726Z,12.70
2023-02-23T13:42:20.294Z,11.40
2023-02-23T13:47:21.934Z,12.50
2023-02-23T13:52:40.877Z,13.30
2023-02-23T13:57:43.833Z,12.60
2023-02-23T14:02:46.446Z,11.00
2023-02-23T14:08:02.945Z,13.40
2023-02-23T14:13:06.957Z,15.50
2023-02-23T14:18:20.971Z,20.00
2023-02-23T14:23:22.763Z,16.10
2023-02-23T14:28:34.414Z,10.10
2023-02-23T14:33:50.031Z,11.30
2023-02-23T14:38:54.462Z,13.10
2023-02-23T14:44:03.284Z,11.90
2023-02-23T14:49:11.783Z,10.70
2023-02-23T14:54:42.770Z,13.60
2023-02-23T14:59:46.165Z,16.90
2023-02-23T15:04:47.899Z,13.00
2023-02-23T15:09:52.325Z,14.20
2023-02-23T15:15:00.932Z,12.10
2023-02-23T15:20:16.213Z,11.70
2023-02-23T15:25:23.961Z,12.70
2023-02-23T15:30:32.663Z,22.50
2023-02-23T15:35:52.654Z,38.50
2023-02-23T15:40:58.144Z,29.70
2023-02-23T15:46:06.195Z,35.80
2023-02-23T15:51:17.528Z,45.10
2023-02-23T15:56:28.413Z,46.80
2023-02-23T16:01:31.890Z,56.00
2023-02-23T16:06:50.923Z,49.10
2023-02-23T16:12:00.307Z,32.80
2023-02-23T16:17:10.979Z,30.60
2023-02-23T16:22:24.798Z,33.70
2023-02-23T16:27:28.268Z,28.50
2023-02-23T16:32:36.687Z,25.30
2023-02-23T16:38:00.848Z,20.80
2023-02-23T16:43:02.729Z,32.20
2023-02-23T16:48:04.700Z,27.80
2023-02-23T16:53:10.047Z,24.70
2023-02-23T16:58:19.163Z,23.90
2023-02-23T17:03:26.702Z,28.10
2023-02-23T17:08:28.585Z,20.50
2023-02-23T17:13:33.254Z,24.60
2023-02-23T17:18:37.175Z,27.90
2023-02-23T17:28:50.771Z,22.90
2023-02-23T17:33:53.671Z,23.10
2023-02-23T17:38:58.712Z,26.70
2023-02-23T17:44:02.628Z,34.00
2023-02-23T17:49:04.983Z,28.20
2023-02-23T17:54:07.186Z,24.90
2023-02-23T17:59:09.083Z,24.60
2023-02-23T18:04:11.211Z,31.00
2023-02-23T18:09:14.454Z,31.00
2023-02-23T18:14:17.363Z,27.20
2023-02-23T18:19:19.926Z,23.40
2023-02-23T18:24:26.314Z,23.30
2023-02-23T18:29:29.915Z,22.00
2023-02-23T18:34:31.807Z,24.30
2023-02-23T18:39:34.697Z,23.10
2023-02-23T18:44:36.347Z,21.00
2023-02-23T18:49:39.529Z,22.90
2023-02-23T18:54:41.619Z,24.70
2023-02-23T18:59:43.960Z,25.90
2023-02-23T19:05:02.738Z,28.90
2023-02-23T19:10:07.109Z,27.90
2023-02-23T19:15:09.777Z,26.70
2023-02-23T19:20:13.361Z,32.30
2023-02-23T19:25:15.481Z,34.50
2023-02-23T19:30:17.509Z,32.90
2023-02-23T19:35:19.402Z,33.80
2023-02-23T19:40:24.002Z,34.10
2023-02-23T19:45:25.945Z,31.10
2023-02-23T19:50:28.436Z,24.50
2023-02-23T19:55:30.344Z,20.70
2023-02-23T20:00:37.285Z,17.80
2023-02-23T20:05:42.882Z,14.20
2023-02-23T20:10:45.332Z,15.40
2023-02-23T20:15:47.116Z,14.70
2023-02-23T20:20:48.972Z,13.70
2023-02-23T20:25:50.648Z,13.70
2023-02-23T20:30:52.409Z,11.10
2023-02-23T20:35:56.109Z,8.80
2023-02-23T20:46:01.170Z,11.70
2023-02-23T20:51:03.698Z,10.50
2023-02-23T20:56:06.513Z,11.30
2023-02-23T21:01:22.305Z,11.40
2023-02-23T21:06:26.100Z,9.80
2023-02-23T21:11:28.320Z,11.80
2023-02-23T21:16:32.295Z,11.80
2023-02-23T21:21:42.743Z,11.40
2023-02-23T21:26:45.157Z,11.30
2023-02-23T21:31:47.091Z,11.40
2023-02-23T21:36:49.886Z,9.70
2023-02-23T21:41:51.721Z,11.00
2023-02-23T21:46:53.503Z,10.90
2023-02-23T21:51:55.217Z,11.40
2023-02-23T21:56:56.938Z,12.70
2023-02-23T22:01:58.709Z,9.30
2023-02-23T22:07:00.446Z,13.20
2023-02-23T22:12:02.438Z,9.80
2023-02-23T22:17:06.361Z,10.70
2023-02-23T22:22:08.360Z,10.40
2023-02-23T22:27:10.446Z,11.00
2023-02-23T22:32:13.774Z,10.80
2023-02-23T22:37:15.530Z,10.80
2023-02-23T22:42:17.361Z,10.50
2023-02-23T22:47:19.056Z,11.00
2023-02-23T22:52:20.796Z,9.20
2023-02-23T22:57:22.512Z,10.00
2023-02-23T23:02:24.232Z,11.10
2023-02-23T23:07:26.122Z,11.60
2023-02-23T23:12:28.714Z,11.10
2023-02-23T23:17:31.778Z,9.70
2023-02-23T23:22:35.418Z,9.70
2023-02-23T23:27:41.302Z,12.60
2023-02-23T23:32:43.273Z,12.20
2023-02-23T23:37:45.321Z,12.30
2023-02-23T23:42:48.111Z,9.30
2023-02-23T23:47:50.019Z,11.90
2023-02-23T23:52:51.882Z,11.60
2023-02-23T23:57:53.554Z,11.20
